sensor_id;sensor_type;location;lat;lon;timestamp;temperature;humidity
871;DHT22;422;51.280;7.236;2023-03-01T00:01:39;-2.40;1.00
871;DHT22;422;51.280;7.236;2023-03-01T00:04:06;-2.40;1.00
871;DHT22;422;51.280;7.236;2023-03-01T00:06:33;-2.50;1.00
871;DHT22;422;51.280;7.236;2023-03-01T00:09:02;-2.50;1.00
871;DHT22;422;51.280;7.236;2023-03-01T00:11:31;-2.50;1.00
871;DHT22;422;51.280;7.236;2023-03-01T00:14:00;-2.60;1.00
871;DHT22;422;51.280;7.236;2023-03-01T00:16:31;-2.60;1.00
871;DHT22;422;51.280;7.236;2023-03-01T00:18:59;-2.60;1.00
871;DHT22;422;51.280;7.236;2023-03-01T00:21:27;-2.60;1.00
871;DHT22;422;51.280;7.236;2023-03-01T00:23:54;-2.50;1.00
871;DHT22;422;51.280;7.236;2023-03-01T00:26:25;-2.60;1.00
871;DHT22;422;51.280;7.236;2023-03-01T00:28:53;-2.60;1.00
871;DHT22;422;51.280;7.236;2023-03-01T00:31:23;-2.60;1.00
871;DHT22;422;51.280;7.236;2023-03-01T00:33:53;-2.60;1.00
871;DHT22;422;51.280;7.236;2023-03-01T00:36:24;-2.50;1.00
871;DHT22;422;51.280;7.236;2023-03-01T00:38:51;-2.60;1.00
871;DHT22;422;51.280;7.236;2023-03-01T00:41:19;-2.60;1.00
871;DHT22;422;51.280;7.236;2023-03-01T00:43:50;-2.60;1.00
871;DHT22;422;51.280;7.236;2023-03-01T00:46:19;-2.60;1.00
871;DHT22;422;51.280;7.236;2023-03-01T00:48:47;-2.60;1.00
871;DHT22;422;51.280;7.236;2023-03-01T00:51:16;-2.80;1.00
871;DHT22;422;51.280;7.236;2023-03-01T00:53:45;-2.80;1.00
871;DHT22;422;51.280;7.236;2023-03-01T00:56:13;-2.80;1.00
871;DHT22;422;51.280;7.236;2023-03-01T00:58:41;-2.80;1.00
871;DHT22;422;51.280;7.236;2023-03-01T01:01:11;-2.90;1.00
871;DHT22;422;51.280;7.236;2023-03-01T01:03:45;-2.90;1.00
871;DHT22;422;51.280;7.236;2023-03-01T01:06:17;-2.90;1.00
871;DHT22;422;51.280;7.236;2023-03-01T01:08:44;-2.80;1.00
871;DHT22;422;51.280;7.236;2023-03-01T01:11:12;-2.90;1.00
871;DHT22;422;51.280;7.236;2023-03-01T01:13:40;-2.80;1.00
871;DHT22;422;51.280;7.236;2023-03-01T01:16:08;-2.80;1.00
871;DHT22;422;51.280;7.236;2023-03-01T01:18:37;-2.90;1.00
871;DHT22;422;51.280;7.236;2023-03-01T01:21:05;-3.00;1.00
871;DHT22;422;51.280;7.236;2023-03-01T01:23:33;-2.90;1.00
871;DHT22;422;51.280;7.236;2023-03-01T01:26:04;-2.90;1.00
871;DHT22;422;51.280;7.236;2023-03-01T01:28:31;-3.00;1.00
871;DHT22;422;51.280;7.236;2023-03-01T01:30:58;-3.00;1.00
871;DHT22;422;51.280;7.236;2023-03-01T01:33:26;-2.90;1.00
871;DHT22;422;51.280;7.236;2023-03-01T01:35:55;-2.90;1.00
871;DHT22;422;51.280;7.236;2023-03-01T01:38:22;-2.90;1.00
871;DHT22;422;51.280;7.236;2023-03-01T01:40:50;-3.00;1.00
871;DHT22;422;51.280;7.236;2023-03-01T01:43:22;-3.20;1.00
871;DHT22;422;51.280;7.236;2023-03-01T01:45:50;-3.30;1.00
871;DHT22;422;51.280;7.236;2023-03-01T01:48:22;-3.40;1.00
871;DHT22;422;51.280;7.236;2023-03-01T01:50:55;-3.40;1.00
871;DHT22;422;51.280;7.236;2023-03-01T01:53:24;-3.40;1.00
871;DHT22;422;51.280;7.236;2023-03-01T01:55:53;-3.30;1.00
871;DHT22;422;51.280;7.236;2023-03-01T01:58:24;-3.20;1.00
871;DHT22;422;51.280;7.236;2023-03-01T02:00:53;-3.20;1.00
871;DHT22;422;51.280;7.236;2023-03-01T02:03:24;-3.20;1.00
871;DHT22;422;51.280;7.236;2023-03-01T02:06:00;-3.20;1.00
871;DHT22;422;51.280;7.236;2023-03-01T02:08:33;-3.30;1.00
871;DHT22;422;51.280;7.236;2023-03-01T02:11:02;-3.40;1.00
871;DHT22;422;51.280;7.236;2023-03-01T02:13:30;-3.50;1.00
871;DHT22;422;51.280;7.236;2023-03-01T02:15:58;-3.50;1.00
871;DHT22;422;51.280;7.236;2023-03-01T02:18:26;-3.50;1.00
871;DHT22;422;51.280;7.236;2023-03-01T02:21:10;-3.60;1.00
871;DHT22;422;51.280;7.236;2023-03-01T02:23:38;-3.50;1.00
871;DHT22;422;51.280;7.236;2023-03-01T02:26:11;-3.60;1.00
871;DHT22;422;51.280;7.236;2023-03-01T02:28:42;-3.50;1.00
871;DHT22;422;51.280;7.236;2023-03-01T02:31:16;-3.50;1.00
871;DHT22;422;51.280;7.236;2023-03-01T02:34:02;-3.50;1.00
871;DHT22;422;51.280;7.236;2023-03-01T02:36:34;-3.60;1.00
871;DHT22;422;51.280;7.236;2023-03-01T02:39:04;-3.60;1.00
871;DHT22;422;51.280;7.236;2023-03-01T02:41:35;-3.60;1.00
871;DHT22;422;51.280;7.236;2023-03-01T02:44:05;-3.70;1.00
871;DHT22;422;51.280;7.236;2023-03-01T02:46:41;-3.60;1.00
871;DHT22;422;51.280;7.236;2023-03-01T02:49:18;-3.60;1.00
871;DHT22;422;51.280;7.236;2023-03-01T02:51:52;-3.60;1.00
871;DHT22;422;51.280;7.236;2023-03-01T02:54:26;-3.60;1.00
871;DHT22;422;51.280;7.236;2023-03-01T02:56:56;-3.60;13.30
871;DHT22;422;51.280;7.236;2023-03-01T02:59:28;-3.60;1.00
871;DHT22;422;51.280;7.236;2023-03-01T03:01:56;-3.70;1.00
871;DHT22;422;51.280;7.236;2023-03-01T03:04:23;-3.90;1.00
871;DHT22;422;51.280;7.236;2023-03-01T03:06:50;-3.80;1.00
871;DHT22;422;51.280;7.236;2023-03-01T03:09:18;-3.90;1.00
871;DHT22;422;51.280;7.236;2023-03-01T03:11:46;-3.90;1.00
871;DHT22;422;51.280;7.236;2023-03-01T03:14:15;-4.00;1.00
871;DHT22;422;51.280;7.236;2023-03-01T03:16:46;-4.00;37.00
871;DHT22;422;51.280;7.236;2023-03-01T03:19:14;-3.90;99.90
871;DHT22;422;51.280;7.236;2023-03-01T03:21:42;-3.80;99.90
871;DHT22;422;51.280;7.236;2023-03-01T03:24:09;-3.80;99.90
871;DHT22;422;51.280;7.236;2023-03-01T03:26:37;-3.80;99.90
871;DHT22;422;51.280;7.236;2023-03-01T03:29:04;-3.90;75.40
871;DHT22;422;51.280;7.236;2023-03-01T03:31:32;-4.00;62.30
871;DHT22;422;51.280;7.236;2023-03-01T03:34:01;-4.00;55.50
871;DHT22;422;51.280;7.236;2023-03-01T03:36:28;-4.00;31.10
871;DHT22;422;51.280;7.236;2023-03-01T03:38:55;-4.10;21.40
871;DHT22;422;51.280;7.236;2023-03-01T03:41:23;-4.20;32.20
871;DHT22;422;51.280;7.236;2023-03-01T03:43:50;-4.20;75.40
871;DHT22;422;51.280;7.236;2023-03-01T03:46:17;-4.30;60.90
871;DHT22;422;51.280;7.236;2023-03-01T03:48:45;-4.40;20.20
871;DHT22;422;51.280;7.236;2023-03-01T03:51:16;-4.50;18.40
871;DHT22;422;51.280;7.236;2023-03-01T03:53:44;-4.30;74.40
871;DHT22;422;51.280;7.236;2023-03-01T03:56:11;-4.20;99.90
871;DHT22;422;51.280;7.236;2023-03-01T03:58:38;-4.20;99.90
871;DHT22;422;51.280;7.236;2023-03-01T04:01:06;-4.10;99.90
871;DHT22;422;51.280;7.236;2023-03-01T04:03:33;-4.20;99.90
871;DHT22;422;51.280;7.236;2023-03-01T04:06:01;-4.20;99.90
871;DHT22;422;51.280;7.236;2023-03-01T04:08:31;-4.30;88.80
871;DHT22;422;51.280;7.236;2023-03-01T04:11:00;-4.30;50.60
871;DHT22;422;51.280;7.236;2023-03-01T04:13:48;-4.30;46.40
871;DHT22;422;51.280;7.236;2023-03-01T04:16:15;-4.30;31.60
871;DHT22;422;51.280;7.236;2023-03-01T04:18:43;-4.40;35.10
871;DHT22;422;51.280;7.236;2023-03-01T04:21:10;-4.30;35.90
871;DHT22;422;51.280;7.236;2023-03-01T04:23:39;-4.40;35.20
871;DHT22;422;51.280;7.236;2023-03-01T04:26:07;-4.40;83.40
871;DHT22;422;51.280;7.236;2023-03-01T04:28:36;-4.40;95.10
871;DHT22;422;51.280;7.236;2023-03-01T04:31:06;-4.30;99.90
871;DHT22;422;51.280;7.236;2023-03-01T04:33:38;-4.20;99.90
871;DHT22;422;51.280;7.236;2023-03-01T04:36:07;-4.20;99.90
871;DHT22;422;51.280;7.236;2023-03-01T04:38:36;-4.20;99.90
871;DHT22;422;51.280;7.236;2023-03-01T04:41:08;-4.30;99.90
871;DHT22;422;51.280;7.236;2023-03-01T04:43:36;-4.30;99.90
871;DHT22;422;51.280;7.236;2023-03-01T04:46:05;-4.30;99.90
871;DHT22;422;51.280;7.236;2023-03-01T04:48:35;-4.30;99.90
871;DHT22;422;51.280;7.236;2023-03-01T04:51:03;-4.30;99.90
871;DHT22;422;51.280;7.236;2023-03-01T04:53:31;-4.30;99.90
871;DHT22;422;51.280;7.236;2023-03-01T04:55:59;-4.40;99.90
871;DHT22;422;51.280;7.236;2023-03-01T04:58:27;-4.40;99.90
871;DHT22;422;51.280;7.236;2023-03-01T05:00:55;-4.30;99.90
871;DHT22;422;51.280;7.236;2023-03-01T05:03:23;-4.50;99.90
871;DHT22;422;51.280;7.236;2023-03-01T05:05:52;-4.50;99.90
871;DHT22;422;51.280;7.236;2023-03-01T05:08:19;-4.60;99.90
871;DHT22;422;51.280;7.236;2023-03-01T05:10:49;-4.60;99.90
871;DHT22;422;51.280;7.236;2023-03-01T05:13:17;-4.60;99.90
871;DHT22;422;51.280;7.236;2023-03-01T05:15:54;-4.50;99.90
871;DHT22;422;51.280;7.236;2023-03-01T05:18:22;-4.30;1.00
871;DHT22;422;51.280;7.236;2023-03-01T05:20:51;-4.40;1.00
871;DHT22;422;51.280;7.236;2023-03-01T05:23:18;-4.40;1.00
871;DHT22;422;51.280;7.236;2023-03-01T05:25:46;-4.40;1.00
871;DHT22;422;51.280;7.236;2023-03-01T05:28:15;-4.40;99.90
871;DHT22;422;51.280;7.236;2023-03-01T05:30:42;-4.30;1.00
871;DHT22;422;51.280;7.236;2023-03-01T05:33:12;-4.30;1.00
871;DHT22;422;51.280;7.236;2023-03-01T05:35:40;-4.30;1.00
871;DHT22;422;51.280;7.236;2023-03-01T05:38:08;-4.30;1.00
871;DHT22;422;51.280;7.236;2023-03-01T05:40:39;-4.50;99.90
871;DHT22;422;51.280;7.236;2023-03-01T05:43:06;-4.40;99.90
871;DHT22;422;51.280;7.236;2023-03-01T05:45:36;-4.40;99.90
871;DHT22;422;51.280;7.236;2023-03-01T05:48:07;-4.40;99.90
871;DHT22;422;51.280;7.236;2023-03-01T05:50:39;-4.40;99.90
871;DHT22;422;51.280;7.236;2023-03-01T05:53:08;-4.40;99.90
871;DHT22;422;51.280;7.236;2023-03-01T05:55:37;-4.50;99.90
871;DHT22;422;51.280;7.236;2023-03-01T05:58:06;-4.50;99.90
871;DHT22;422;51.280;7.236;2023-03-01T06:00:34;-4.50;99.90
871;DHT22;422;51.280;7.236;2023-03-01T06:03:02;-4.50;99.90
871;DHT22;422;51.280;7.236;2023-03-01T06:05:30;-4.60;99.90
871;DHT22;422;51.280;7.236;2023-03-01T06:08:01;-4.70;99.90
871;DHT22;422;51.280;7.236;2023-03-01T06:10:29;-4.70;87.20
871;DHT22;422;51.280;7.236;2023-03-01T06:12:57;-4.60;91.50
871;DHT22;422;51.280;7.236;2023-03-01T06:15:25;-4.50;62.10
871;DHT22;422;51.280;7.236;2023-03-01T06:17:55;-4.50;28.60
871;DHT22;422;51.280;7.236;2023-03-01T06:20:25;-4.50;20.70
871;DHT22;422;51.280;7.236;2023-03-01T06:22:53;-4.40;44.90
871;DHT22;422;51.280;7.236;2023-03-01T06:25:23;-4.40;90.30
871;DHT22;422;51.280;7.236;2023-03-01T06:27:51;-4.40;93.70
871;DHT22;422;51.280;7.236;2023-03-01T06:30:20;-4.20;99.90
871;DHT22;422;51.280;7.236;2023-03-01T06:32:49;-4.10;99.90
871;DHT22;422;51.280;7.236;2023-03-01T06:35:18;-4.00;99.90
871;DHT22;422;51.280;7.236;2023-03-01T06:37:46;-4.10;99.90
871;DHT22;422;51.280;7.236;2023-03-01T06:40:14;-4.00;99.90
871;DHT22;422;51.280;7.236;2023-03-01T06:42:48;-3.90;99.90
871;DHT22;422;51.280;7.236;2023-03-01T06:45:19;-3.90;99.90
871;DHT22;422;51.280;7.236;2023-03-01T06:47:46;-3.90;99.90
871;DHT22;422;51.280;7.236;2023-03-01T06:50:15;-3.90;94.80
871;DHT22;422;51.280;7.236;2023-03-01T06:52:42;-3.80;75.90
871;DHT22;422;51.280;7.236;2023-03-01T06:55:10;-3.80;48.10
871;DHT22;422;51.280;7.236;2023-03-01T06:57:38;-3.80;42.50
871;DHT22;422;51.280;7.236;2023-03-01T07:00:07;-3.80;41.50
871;DHT22;422;51.280;7.236;2023-03-01T07:02:35;-3.60;64.00
871;DHT22;422;51.280;7.236;2023-03-01T07:05:02;-3.60;75.50
871;DHT22;422;51.280;7.236;2023-03-01T07:07:29;-3.60;92.30
871;DHT22;422;51.280;7.236;2023-03-01T07:09:57;-3.50;96.10
871;DHT22;422;51.280;7.236;2023-03-01T07:12:24;-3.40;91.00
871;DHT22;422;51.280;7.236;2023-03-01T07:14:52;-3.40;82.60
871;DHT22;422;51.280;7.236;2023-03-01T07:17:21;-3.30;72.10
871;DHT22;422;51.280;7.236;2023-03-01T07:19:48;-3.30;78.60
871;DHT22;422;51.280;7.236;2023-03-01T07:22:15;-3.20;55.60
871;DHT22;422;51.280;7.236;2023-03-01T07:24:43;-3.10;75.50
871;DHT22;422;51.280;7.236;2023-03-01T07:27:10;-3.00;99.90
871;DHT22;422;51.280;7.236;2023-03-01T07:29:37;-2.70;99.90
871;DHT22;422;51.280;7.236;2023-03-01T07:32:05;-2.50;99.90
871;DHT22;422;51.280;7.236;2023-03-01T07:34:34;-2.30;99.90
871;DHT22;422;51.280;7.236;2023-03-01T07:37:01;-2.10;99.90
871;DHT22;422;51.280;7.236;2023-03-01T07:39:28;-1.80;99.90
871;DHT22;422;51.280;7.236;2023-03-01T07:41:55;-1.60;99.90
871;DHT22;422;51.280;7.236;2023-03-01T07:44:23;-1.50;1.00
871;DHT22;422;51.280;7.236;2023-03-01T07:46:51;-1.40;1.00
871;DHT22;422;51.280;7.236;2023-03-01T07:49:21;-1.10;1.00
871;DHT22;422;51.280;7.236;2023-03-01T07:51:50;-0.80;1.00
871;DHT22;422;51.280;7.236;2023-03-01T07:54:17;-0.70;1.00
871;DHT22;422;51.280;7.236;2023-03-01T07:56:44;-0.40;1.00
871;DHT22;422;51.280;7.236;2023-03-01T07:59:12;-0.30;1.00
871;DHT22;422;51.280;7.236;2023-03-01T08:01:39;0.00;1.00
871;DHT22;422;51.280;7.236;2023-03-01T08:04:07;0.10;1.00
871;DHT22;422;51.280;7.236;2023-03-01T08:06:35;0.20;1.00
871;DHT22;422;51.280;7.236;2023-03-01T08:09:04;0.50;1.00
871;DHT22;422;51.280;7.236;2023-03-01T08:11:31;0.60;1.00
871;DHT22;422;51.280;7.236;2023-03-01T08:13:58;0.70;1.00
871;DHT22;422;51.280;7.236;2023-03-01T08:16:25;1.00;1.00
871;DHT22;422;51.280;7.236;2023-03-01T08:18:53;0.90;99.90
871;DHT22;422;51.280;7.236;2023-03-01T08:21:22;1.20;99.90
871;DHT22;422;51.280;7.236;2023-03-01T08:23:49;1.20;99.90
871;DHT22;422;51.280;7.236;2023-03-01T08:26:19;1.00;99.90
871;DHT22;422;51.280;7.236;2023-03-01T08:28:48;1.00;99.90
871;DHT22;422;51.280;7.236;2023-03-01T08:31:18;1.40;99.90
871;DHT22;422;51.280;7.236;2023-03-01T08:33:46;1.80;99.90
871;DHT22;422;51.280;7.236;2023-03-01T08:36:17;2.20;99.90
871;DHT22;422;51.280;7.236;2023-03-01T08:38:46;2.40;99.90
871;DHT22;422;51.280;7.236;2023-03-01T08:41:14;2.50;99.90
871;DHT22;422;51.280;7.236;2023-03-01T08:43:42;2.70;99.90
871;DHT22;422;51.280;7.236;2023-03-01T08:46:09;2.70;99.90
871;DHT22;422;51.280;7.236;2023-03-01T08:48:37;2.90;99.90
871;DHT22;422;51.280;7.236;2023-03-01T08:51:08;2.80;99.90
871;DHT22;422;51.280;7.236;2023-03-01T08:53:35;3.20;99.90
871;DHT22;422;51.280;7.236;2023-03-01T08:56:02;3.50;99.90
871;DHT22;422;51.280;7.236;2023-03-01T08:58:30;3.50;99.90
871;DHT22;422;51.280;7.236;2023-03-01T09:00:59;3.20;99.90
871;DHT22;422;51.280;7.236;2023-03-01T09:03:26;3.40;99.90
871;DHT22;422;51.280;7.236;2023-03-01T09:06:00;3.60;99.90
871;DHT22;422;51.280;7.236;2023-03-01T09:08:27;4.10;99.90
871;DHT22;422;51.280;7.236;2023-03-01T09:10:54;4.10;99.90
871;DHT22;422;51.280;7.236;2023-03-01T09:13:22;4.10;99.90
871;DHT22;422;51.280;7.236;2023-03-01T09:15:50;4.30;99.90
871;DHT22;422;51.280;7.236;2023-03-01T09:18:19;4.70;99.90
871;DHT22;422;51.280;7.236;2023-03-01T09:20:46;5.00;99.90
871;DHT22;422;51.280;7.236;2023-03-01T09:23:13;4.80;99.90
871;DHT22;422;51.280;7.236;2023-03-01T09:25:40;4.80;99.90
871;DHT22;422;51.280;7.236;2023-03-01T09:28:08;4.90;99.90
871;DHT22;422;51.280;7.236;2023-03-01T09:30:36;4.80;99.90
871;DHT22;422;51.280;7.236;2023-03-01T09:33:03;5.20;99.90
871;DHT22;422;51.280;7.236;2023-03-01T09:35:32;5.20;99.90
871;DHT22;422;51.280;7.236;2023-03-01T09:37:59;5.40;99.90
871;DHT22;422;51.280;7.236;2023-03-01T09:40:27;5.80;99.90
871;DHT22;422;51.280;7.236;2023-03-01T09:42:58;5.70;99.90
871;DHT22;422;51.280;7.236;2023-03-01T09:45:29;5.90;99.90
871;DHT22;422;51.280;7.236;2023-03-01T09:48:00;6.10;99.90
871;DHT22;422;51.280;7.236;2023-03-01T09:50:34;6.00;99.90
871;DHT22;422;51.280;7.236;2023-03-01T09:53:04;6.10;99.90
871;DHT22;422;51.280;7.236;2023-03-01T09:55:37;5.80;99.90
871;DHT22;422;51.280;7.236;2023-03-01T10:01:09;6.40;99.90
871;DHT22;422;51.280;7.236;2023-03-01T10:03:43;6.70;99.90
871;DHT22;422;51.280;7.236;2023-03-01T10:06:14;6.80;99.90
871;DHT22;422;51.280;7.236;2023-03-01T10:08:46;5.90;99.90
871;DHT22;422;51.280;7.236;2023-03-01T10:11:20;6.50;99.90
871;DHT22;422;51.280;7.236;2023-03-01T10:13:52;7.10;99.90
871;DHT22;422;51.280;7.236;2023-03-01T10:16:25;7.40;99.90
871;DHT22;422;51.280;7.236;2023-03-01T10:18:58;7.60;99.90
871;DHT22;422;51.280;7.236;2023-03-01T10:21:28;7.40;99.90
871;DHT22;422;51.280;7.236;2023-03-01T10:24:01;7.00;99.90
871;DHT22;422;51.280;7.236;2023-03-01T10:26:44;7.40;99.90
871;DHT22;422;51.280;7.236;2023-03-01T10:29:14;8.00;99.90
871;DHT22;422;51.280;7.236;2023-03-01T10:31:43;8.20;99.90
871;DHT22;422;51.280;7.236;2023-03-01T10:34:14;8.00;99.90
871;DHT22;422;51.280;7.236;2023-03-01T10:36:47;8.50;99.90
871;DHT22;422;51.280;7.236;2023-03-01T10:39:17;8.80;99.90
871;DHT22;422;51.280;7.236;2023-03-01T10:42:01;8.50;99.90
871;DHT22;422;51.280;7.236;2023-03-01T10:44:37;8.30;99.90
871;DHT22;422;51.280;7.236;2023-03-01T10:47:05;7.70;99.90
871;DHT22;422;51.280;7.236;2023-03-01T10:49:38;8.10;99.90
871;DHT22;422;51.280;7.236;2023-03-01T10:52:18;8.70;99.90
871;DHT22;422;51.280;7.236;2023-03-01T10:54:52;8.50;99.90
871;DHT22;422;51.280;7.236;2023-03-01T10:57:34;8.50;99.90
871;DHT22;422;51.280;7.236;2023-03-01T11:00:19;8.30;99.90
871;DHT22;422;51.280;7.236;2023-03-01T11:02:48;8.00;99.90
871;DHT22;422;51.280;7.236;2023-03-01T11:05:22;8.40;99.90
871;DHT22;422;51.280;7.236;2023-03-01T11:07:53;8.90;99.90
871;DHT22;422;51.280;7.236;2023-03-01T11:10:23;8.80;99.90
871;DHT22;422;51.280;7.236;2023-03-01T11:12:51;9.30;99.90
871;DHT22;422;51.280;7.236;2023-03-01T11:15:25;9.20;99.90
871;DHT22;422;51.280;7.236;2023-03-01T11:17:53;9.30;99.90
871;DHT22;422;51.280;7.236;2023-03-01T11:20:25;8.00;99.90
871;DHT22;422;51.280;7.236;2023-03-01T11:22:57;7.90;99.90
871;DHT22;422;51.280;7.236;2023-03-01T11:25:27;8.00;99.90
871;DHT22;422;51.280;7.236;2023-03-01T11:27:56;7.80;99.90
871;DHT22;422;51.280;7.236;2023-03-01T11:30:28;8.80;99.90
871;DHT22;422;51.280;7.236;2023-03-01T11:33:05;9.50;99.90
871;DHT22;422;51.280;7.236;2023-03-01T11:35:37;10.00;99.90
871;DHT22;422;51.280;7.236;2023-03-01T11:38:16;8.80;99.90
871;DHT22;422;51.280;7.236;2023-03-01T11:40:49;8.90;99.90
871;DHT22;422;51.280;7.236;2023-03-01T11:43:23;9.40;99.90
871;DHT22;422;51.280;7.236;2023-03-01T11:46:28;9.40;99.90
871;DHT22;422;51.280;7.236;2023-03-01T11:49:04;9.60;99.90
871;DHT22;422;51.280;7.236;2023-03-01T11:51:41;9.90;99.90
871;DHT22;422;51.280;7.236;2023-03-01T11:54:23;9.80;99.90
871;DHT22;422;51.280;7.236;2023-03-01T11:56:55;10.30;99.90
871;DHT22;422;51.280;7.236;2023-03-01T11:59:45;10.30;99.90
871;DHT22;422;51.280;7.236;2023-03-01T12:08:33;11.10;99.90
871;DHT22;422;51.280;7.236;2023-03-01T12:11:14;10.50;99.90
871;DHT22;422;51.280;7.236;2023-03-01T12:20:11;11.10;99.90
871;DHT22;422;51.280;7.236;2023-03-01T12:22:54;9.70;99.90
871;DHT22;422;51.280;7.236;2023-03-01T12:25:29;10.20;99.90
871;DHT22;422;51.280;7.236;2023-03-01T12:31:10;10.20;99.90
871;DHT22;422;51.280;7.236;2023-03-01T12:33:48;10.20;99.90
871;DHT22;422;51.280;7.236;2023-03-01T12:36:29;10.70;99.90
871;DHT22;422;51.280;7.236;2023-03-01T12:39:06;10.50;99.90
871;DHT22;422;51.280;7.236;2023-03-01T12:41:48;10.10;99.90
871;DHT22;422;51.280;7.236;2023-03-01T12:44:35;10.20;99.90
871;DHT22;422;51.280;7.236;2023-03-01T12:47:18;10.50;99.90
871;DHT22;422;51.280;7.236;2023-03-01T12:49:51;10.50;99.90
871;DHT22;422;51.280;7.236;2023-03-01T12:52:24;10.50;99.90
871;DHT22;422;51.280;7.236;2023-03-01T12:54:57;10.10;99.90
871;DHT22;422;51.280;7.236;2023-03-01T12:57:29;10.00;99.90
871;DHT22;422;51.280;7.236;2023-03-01T13:00:17;9.30;99.90
871;DHT22;422;51.280;7.236;2023-03-01T13:02:54;9.10;99.90
871;DHT22;422;51.280;7.236;2023-03-01T13:05:37;9.80;99.90
871;DHT22;422;51.280;7.236;2023-03-01T13:08:10;10.50;99.90
871;DHT22;422;51.280;7.236;2023-03-01T13:10:43;9.90;99.90
871;DHT22;422;51.280;7.236;2023-03-01T13:13:18;9.90;99.90
871;DHT22;422;51.280;7.236;2023-03-01T13:15:47;10.20;99.90
871;DHT22;422;51.280;7.236;2023-03-01T13:18:31;9.70;99.90
871;DHT22;422;51.280;7.236;2023-03-01T13:21:01;9.80;99.90
871;DHT22;422;51.280;7.236;2023-03-01T13:23:33;9.40;99.90
871;DHT22;422;51.280;7.236;2023-03-01T13:26:14;9.40;99.90
871;DHT22;422;51.280;7.236;2023-03-01T13:28:56;10.10;99.90
871;DHT22;422;51.280;7.236;2023-03-01T13:32:00;9.80;99.90
871;DHT22;422;51.280;7.236;2023-03-01T13:34:51;9.50;99.90
871;DHT22;422;51.280;7.236;2023-03-01T13:37:24;9.60;99.90
871;DHT22;422;51.280;7.236;2023-03-01T13:39:56;9.60;99.90
871;DHT22;422;51.280;7.236;2023-03-01T13:42:42;9.50;99.90
871;DHT22;422;51.280;7.236;2023-03-01T13:45:20;8.90;99.90
871;DHT22;422;51.280;7.236;2023-03-01T13:47:55;8.90;99.90
871;DHT22;422;51.280;7.236;2023-03-01T13:50:25;9.00;99.90
871;DHT22;422;51.280;7.236;2023-03-01T13:52:56;9.30;99.90
871;DHT22;422;51.280;7.236;2023-03-01T13:55:34;8.80;99.90
871;DHT22;422;51.280;7.236;2023-03-01T13:58:13;9.20;99.90
871;DHT22;422;51.280;7.236;2023-03-01T14:00:41;9.50;99.90
871;DHT22;422;51.280;7.236;2023-03-01T14:03:15;9.20;99.90
871;DHT22;422;51.280;7.236;2023-03-01T14:05:50;9.20;99.90
871;DHT22;422;51.280;7.236;2023-03-01T14:08:24;9.30;99.90
871;DHT22;422;51.280;7.236;2023-03-01T14:11:05;9.40;99.90
871;DHT22;422;51.280;7.236;2023-03-01T14:13:52;9.60;99.90
871;DHT22;422;51.280;7.236;2023-03-01T14:16:30;9.20;99.90
871;DHT22;422;51.280;7.236;2023-03-01T14:19:15;8.80;99.90
871;DHT22;422;51.280;7.236;2023-03-01T14:21:43;8.70;99.90
871;DHT22;422;51.280;7.236;2023-03-01T14:24:18;8.40;99.90
871;DHT22;422;51.280;7.236;2023-03-01T14:26:45;8.40;99.90
871;DHT22;422;51.280;7.236;2023-03-01T14:29:27;8.20;99.90
871;DHT22;422;51.280;7.236;2023-03-01T14:31:55;7.90;99.90
871;DHT22;422;51.280;7.236;2023-03-01T14:34:24;8.10;99.90
871;DHT22;422;51.280;7.236;2023-03-01T14:36:51;7.70;99.90
871;DHT22;422;51.280;7.236;2023-03-01T14:39:22;8.00;99.90
871;DHT22;422;51.280;7.236;2023-03-01T14:41:52;7.70;99.90
871;DHT22;422;51.280;7.236;2023-03-01T14:44:22;7.60;99.90
871;DHT22;422;51.280;7.236;2023-03-01T14:46:52;7.90;99.90
871;DHT22;422;51.280;7.236;2023-03-01T14:49:24;8.00;99.90
871;DHT22;422;51.280;7.236;2023-03-01T14:51:54;8.00;99.90
871;DHT22;422;51.280;7.236;2023-03-01T14:54:25;7.80;99.90
871;DHT22;422;51.280;7.236;2023-03-01T14:56:57;7.80;99.90
871;DHT22;422;51.280;7.236;2023-03-01T14:59:25;7.80;99.90
871;DHT22;422;51.280;7.236;2023-03-01T15:01:54;7.60;99.90
871;DHT22;422;51.280;7.236;2023-03-01T15:04:24;7.40;99.90
871;DHT22;422;51.280;7.236;2023-03-01T15:06:53;7.10;99.90
871;DHT22;422;51.280;7.236;2023-03-01T15:09:21;6.80;99.90
871;DHT22;422;51.280;7.236;2023-03-01T15:11:49;6.60;99.90
871;DHT22;422;51.280;7.236;2023-03-01T15:14:36;6.40;99.90
871;DHT22;422;51.280;7.236;2023-03-01T15:17:19;6.30;99.90
871;DHT22;422;51.280;7.236;2023-03-01T15:19:49;6.20;99.90
871;DHT22;422;51.280;7.236;2023-03-01T15:22:17;6.20;99.90
871;DHT22;422;51.280;7.236;2023-03-01T15:24:47;6.20;99.90
871;DHT22;422;51.280;7.236;2023-03-01T15:27:17;6.20;99.90
871;DHT22;422;51.280;7.236;2023-03-01T15:29:49;6.20;99.90
871;DHT22;422;51.280;7.236;2023-03-01T15:32:26;6.20;99.90
871;DHT22;422;51.280;7.236;2023-03-01T15:34:55;6.20;99.90
871;DHT22;422;51.280;7.236;2023-03-01T15:37:40;6.20;99.90
871;DHT22;422;51.280;7.236;2023-03-01T15:40:21;6.10;99.90
871;DHT22;422;51.280;7.236;2023-03-01T15:42:50;6.00;99.90
871;DHT22;422;51.280;7.236;2023-03-01T15:45:24;6.00;99.90
871;DHT22;422;51.280;7.236;2023-03-01T15:47:55;6.00;99.90
871;DHT22;422;51.280;7.236;2023-03-01T15:50:27;6.00;99.90
871;DHT22;422;51.280;7.236;2023-03-01T15:52:55;6.00;99.90
871;DHT22;422;51.280;7.236;2023-03-01T15:55:24;6.00;99.90
871;DHT22;422;51.280;7.236;2023-03-01T15:57:59;6.00;99.90
871;DHT22;422;51.280;7.236;2023-03-01T16:00:27;6.00;99.90
871;DHT22;422;51.280;7.236;2023-03-01T16:02:55;6.10;99.90
871;DHT22;422;51.280;7.236;2023-03-01T16:05:25;6.00;99.90
871;DHT22;422;51.280;7.236;2023-03-01T16:07:54;5.90;99.90
871;DHT22;422;51.280;7.236;2023-03-01T16:10:22;5.90;99.90
871;DHT22;422;51.280;7.236;2023-03-01T16:12:50;5.80;99.90
871;DHT22;422;51.280;7.236;2023-03-01T16:15:20;5.80;99.90
871;DHT22;422;51.280;7.236;2023-03-01T16:17:48;5.80;99.90
871;DHT22;422;51.280;7.236;2023-03-01T16:20:16;5.80;99.90
871;DHT22;422;51.280;7.236;2023-03-01T16:22:45;5.70;99.90
871;DHT22;422;51.280;7.236;2023-03-01T16:25:14;5.60;99.90
871;DHT22;422;51.280;7.236;2023-03-01T16:27:42;5.40;99.90
871;DHT22;422;51.280;7.236;2023-03-01T16:30:10;5.30;99.90
871;DHT22;422;51.280;7.236;2023-03-01T16:32:38;5.20;99.90
871;DHT22;422;51.280;7.236;2023-03-01T16:35:06;5.00;99.90
871;DHT22;422;51.280;7.236;2023-03-01T16:37:34;5.00;99.90
871;DHT22;422;51.280;7.236;2023-03-01T16:40:04;4.90;99.90
871;DHT22;422;51.280;7.236;2023-03-01T16:42:33;4.90;99.90
871;DHT22;422;51.280;7.236;2023-03-01T16:45:01;4.90;99.90
871;DHT22;422;51.280;7.236;2023-03-01T16:47:28;4.80;99.90
871;DHT22;422;51.280;7.236;2023-03-01T16:49:56;4.70;99.90
871;DHT22;422;51.280;7.236;2023-03-01T16:52:23;4.70;99.90
871;DHT22;422;51.280;7.236;2023-03-01T16:54:50;4.60;99.90
871;DHT22;422;51.280;7.236;2023-03-01T16:57:18;4.60;99.90
871;DHT22;422;51.280;7.236;2023-03-01T16:59:46;4.50;99.90
871;DHT22;422;51.280;7.236;2023-03-01T17:02:13;4.40;99.90
871;DHT22;422;51.280;7.236;2023-03-01T17:04:44;4.30;99.90
871;DHT22;422;51.280;7.236;2023-03-01T17:07:11;4.20;99.90
871;DHT22;422;51.280;7.236;2023-03-01T17:09:39;4.20;99.90
871;DHT22;422;51.280;7.236;2023-03-01T17:12:06;4.10;99.90
871;DHT22;422;51.280;7.236;2023-03-01T17:14:35;4.10;99.90
871;DHT22;422;51.280;7.236;2023-03-01T17:17:03;4.00;99.90
871;DHT22;422;51.280;7.236;2023-03-01T17:19:30;4.00;99.90
871;DHT22;422;51.280;7.236;2023-03-01T17:21:57;3.90;99.90
871;DHT22;422;51.280;7.236;2023-03-01T17:24:25;3.90;99.90
871;DHT22;422;51.280;7.236;2023-03-01T17:26:53;3.90;99.90
871;DHT22;422;51.280;7.236;2023-03-01T17:29:20;3.80;99.90